createdAt,value
2023-03-28T00:00:36.605Z,97659.03
2023-03-28T00:02:38.193Z,97652.28
2023-03-28T00:04:41.344Z,97663.75
2023-03-28T00:06:45.677Z,97657.28
2023-03-28T00:08:47.919Z,97648.25
2023-03-28T00:10:49.238Z,97659.28
2023-03-28T00:12:50.647Z,97675.59
2023-03-28T00:14:51.938Z,97674.31
2023-03-28T00:16:53.325Z,97664.38
2023-03-28T00:18:54.691Z,97676.09
2023-03-28T00:20:55.985Z,97666.72
2023-03-28T00:22:57.319Z,97673.06
2023-03-28T00:24:58.748Z,97672.13
2023-03-28T00:27:00.551Z,97667.72
2023-03-28T00:29:01.944Z,97675.25
2023-03-28T00:31:03.369Z,97670.78
2023-03-28T00:33:07.618Z,97674.69
2023-03-28T00:35:09.671Z,97663.97
2023-03-28T00:37:14.789Z,97658.41
2023-03-28T00:39:16.078Z,97662.19
2023-03-28T00:41:18.520Z,97654.19
2023-03-28T00:43:19.823Z,97658.19
2023-03-28T00:45:24.556Z,97658.75
2023-03-28T00:47:26.011Z,97646.63
2023-03-28T00:49:27.431Z,97650.56
2023-03-28T00:51:29.435Z,97634.06
2023-03-28T00:53:31.643Z,97636.53
2023-03-28T00:55:32.968Z,97647.59
2023-03-28T00:57:34.885Z,97630.47
2023-03-28T00:59:36.386Z,97623.69
2023-03-28T01:01:37.817Z,97645.91
2023-03-28T01:03:41.361Z,97611.06
2023-03-28T01:05:42.861Z,97622.28
2023-03-28T01:07:45.323Z,97609.69
2023-03-28T01:09:46.616Z,97612.47
2023-03-28T01:11:48.025Z,97604.88
2023-03-28T01:13:49.373Z,97618.63
2023-03-28T01:15:51.520Z,97607.72
2023-03-28T01:17:52.896Z,97607.03
2023-03-28T01:19:58.985Z,97608.97
2023-03-28T01:22:01.084Z,97609.16
2023-03-28T01:24:11.997Z,97616.19
2023-03-28T01:26:13.623Z,97624.88
2023-03-28T01:28:14.909Z,97663.31
2023-03-28T01:30:16.350Z,97679.63
2023-03-28T01:32:17.676Z,97697.72
2023-03-28T01:34:18.982Z,97685.06
2023-03-28T01:36:34.087Z,97680.78
2023-03-28T01:38:36.857Z,97669.03
2023-03-28T01:40:38.255Z,97690.63
2023-03-28T01:42:39.596Z,97685.66
2023-03-28T01:44:40.927Z,97706.22
2023-03-28T01:46:42.267Z,97686.69
2023-03-28T01:48:43.565Z,97680.00
2023-03-28T01:50:44.900Z,97686.06
2023-03-28T01:52:46.233Z,97694.63
2023-03-28T01:54:47.573Z,97688.78
2023-03-28T01:56:49.207Z,97682.88
2023-03-28T01:58:50.660Z,97671.78
2023-03-28T02:00:54.480Z,97678.50
2023-03-28T02:02:55.898Z,97685.19
2023-03-28T02:04:57.414Z,97688.50
2023-03-28T02:06:58.776Z,97682.44
2023-03-28T02:09:00.570Z,97688.22
2023-03-28T02:11:01.906Z,97696.50
2023-03-28T02:13:03.196Z,97700.53
2023-03-28T02:15:05.128Z,97702.84
2023-03-28T02:17:06.510Z,97706.00
2023-03-28T02:19:08.546Z,97710.81
2023-03-28T02:21:09.941Z,97713.94
2023-03-28T02:23:11.276Z,97712.75
2023-03-28T02:25:12.621Z,97709.81
2023-03-28T02:27:14.003Z,97719.84
2023-03-28T02:29:15.802Z,97714.75
2023-03-28T02:31:17.196Z,97730.25
2023-03-28T02:33:22.512Z,97722.78
2023-03-28T02:35:23.952Z,97728.88
2023-03-28T02:37:25.415Z,97739.22
2023-03-28T02:39:26.709Z,97740.31
2023-03-28T02:41:28.049Z,97731.94
2023-03-28T02:43:29.783Z,97731.19
2023-03-28T02:45:31.144Z,97732.13
2023-03-28T02:47:32.472Z,97745.91
2023-03-28T02:49:43.778Z,97730.72
2023-03-28T02:51:50.731Z,97735.97
2023-03-28T02:53:52.055Z,97729.31
2023-03-28T02:55:54.584Z,97734.47
2023-03-28T02:57:55.932Z,97735.53
2023-03-28T02:59:57.275Z,97746.69
2023-03-28T03:01:58.634Z,97734.84
2023-03-28T03:04:01.248Z,97740.91
2023-03-28T03:06:04.117Z,97755.53
2023-03-28T03:08:05.464Z,97749.72
2023-03-28T03:10:07.013Z,97746.38
2023-03-28T03:12:08.321Z,97748.22
2023-03-28T03:14:09.611Z,97752.59
2023-03-28T03:16:11.140Z,97750.13
2023-03-28T03:18:13.106Z,97750.13
2023-03-28T03:20:14.450Z,97736.56
2023-03-28T03:22:20.806Z,97750.91
2023-03-28T03:24:22.650Z,97742.19
2023-03-28T03:26:24.001Z,97746.25
2023-03-28T03:28:25.340Z,97741.91
2023-03-28T03:30:26.678Z,97747.72
2023-03-28T03:32:28.014Z,97756.91
2023-03-28T03:34:29.503Z,97755.78
2023-03-28T03:36:31.800Z,97758.09
2023-03-28T03:38:33.206Z,97745.94
2023-03-28T03:40:34.544Z,97756.75
2023-03-28T03:42:36.353Z,97770.06
2023-03-28T03:44:37.784Z,97756.22
2023-03-28T03:46:39.183Z,97766.16
2023-03-28T03:48:49.919Z,97761.53
2023-03-28T03:50:51.753Z,97765.63
2023-03-28T03:52:53.083Z,97767.28
2023-03-28T03:54:54.396Z,97762.13
2023-03-28T03:56:55.891Z,97771.66
2023-03-28T03:58:57.270Z,97782.00
2023-03-28T04:00:59.403Z,97774.53
2023-03-28T04:03:00.735Z,97777.25
2023-03-28T04:05:02.270Z,97782.53
2023-03-28T04:07:03.581Z,97782.59
2023-03-28T04:09:04.921Z,97785.38
2023-03-28T04:11:06.253Z,97788.97
2023-03-28T04:13:07.546Z,97780.63
2023-03-28T04:15:08.887Z,97785.13
2023-03-28T04:17:10.258Z,97783.59
2023-03-28T04:19:13.880Z,97793.06
2023-03-28T04:21:16.997Z,97796.44
2023-03-28T04:23:18.567Z,97818.59
2023-03-28T04:25:21.718Z,97802.59
2023-03-28T04:27:26.287Z,97811.16
2023-03-28T04:29:30.853Z,97807.09
2023-03-28T04:31:35.725Z,97809.84
2023-03-28T04:33:37.392Z,97803.97
2023-03-28T04:35:38.860Z,97819.38
2023-03-28T04:37:40.369Z,97817.72
2023-03-28T04:39:41.781Z,97825.44
2023-03-28T04:41:46.174Z,97817.91
2023-03-28T04:43:47.610Z,97819.75
2023-03-28T04:45:48.953Z,97824.91
2023-03-28T04:47:50.738Z,97826.69
2023-03-28T04:49:52.669Z,97838.66
2023-03-28T04:51:54.026Z,97839.50
2023-03-28T04:53:55.452Z,97842.78
2023-03-28T04:55:56.804Z,97845.13
2023-03-28T04:57:58.747Z,97847.63
2023-03-28T05:00:00.237Z,97855.94
2023-03-28T05:02:02.312Z,97854.97
2023-03-28T05:04:03.657Z,97849.66
2023-03-28T05:06:04.965Z,97861.22
2023-03-28T05:08:06.809Z,97852.53
2023-03-28T05:10:08.436Z,97885.34
2023-03-28T05:12:09.870Z,97855.19
2023-03-28T05:14:11.199Z,97861.75
2023-03-28T05:16:12.519Z,97866.56
2023-03-28T05:18:13.915Z,97866.34
2023-03-28T05:20:16.637Z,97860.25
2023-03-28T05:22:17.940Z,97869.63
2023-03-28T05:24:19.243Z,97878.00
2023-03-28T05:26:21.091Z,97877.16
2023-03-28T05:28:22.542Z,97882.41
2023-03-28T05:30:23.839Z,97876.41
2023-03-28T05:32:27.824Z,97879.97
2023-03-28T05:34:29.693Z,97883.53
2023-03-28T05:36:31.429Z,97892.22
2023-03-28T05:38:33.680Z,97890.72
2023-03-28T05:40:35.061Z,97896.84
2023-03-28T05:42:36.349Z,97905.63
2023-03-28T05:44:37.716Z,97921.19
2023-03-28T05:46:39.027Z,97928.84
2023-03-28T05:48:40.520Z,97933.13
2023-03-28T05:50:41.868Z,97944.25
2023-03-28T05:52:43.163Z,97946.13
2023-03-28T05:54:51.093Z,97946.28
2023-03-28T05:56:53.429Z,97974.50
2023-03-28T05:58:54.828Z,97960.97
2023-03-28T06:00:56.580Z,97969.56
2023-03-28T06:02:57.960Z,97972.25
2023-03-28T06:05:00.317Z,97986.75
2023-03-28T06:07:03.173Z,97977.53
2023-03-28T06:09:04.590Z,97980.16
2023-03-28T06:11:06.270Z,97992.97
2023-03-28T06:13:07.560Z,97993.88
2023-03-28T06:15:08.859Z,97988.03
2023-03-28T06:17:10.388Z,97992.31
2023-03-28T06:19:17.978Z,98000.94
2023-03-28T06:21:19.932Z,98001.88
2023-03-28T06:23:21.221Z,98010.38
2023-03-28T06:25:22.572Z,98013.72
2023-03-28T06:27:23.878Z,98009.25
2023-03-28T06:29:25.335Z,98014.28
2023-03-28T06:31:26.692Z,98020.13
2023-03-28T06:33:28.024Z,98026.84
2023-03-28T06:35:29.366Z,98018.94
2023-03-28T06:37:30.981Z,98024.69
2023-03-28T06:39:32.320Z,98032.09
2023-03-28T06:41:33.632Z,98039.44
2023-03-28T06:43:37.697Z,98039.13
2023-03-28T06:45:39.220Z,98034.59
2023-03-28T06:47:40.529Z,98040.34
2023-03-28T06:49:41.883Z,98039.31
2023-03-28T06:51:43.364Z,98051.09
2023-03-28T06:53:44.654Z,98046.78
2023-03-28T06:55:46.223Z,98050.84
2023-03-28T06:57:47.520Z,98062.69
2023-03-28T06:59:49.190Z,98069.59
2023-03-28T07:01:50.648Z,98068.09
2023-03-28T07:03:52.560Z,98081.72
2023-03-28T07:05:54.122Z,98079.00
2023-03-28T07:07:55.495Z,97950.53
2023-03-28T07:09:56.802Z,98082.22
2023-03-28T07:11:58.091Z,98085.81
2023-03-28T07:13:59.514Z,98086.50
2023-03-28T07:16:00.886Z,98094.69
2023-03-28T07:18:02.203Z,98097.50
2023-03-28T07:20:04.321Z,98102.84
2023-03-28T07:22:05.641Z,98099.59
2023-03-28T07:24:06.954Z,98102.31
2023-03-28T07:26:08.521Z,98130.56
2023-03-28T07:28:09.945Z,98113.72
2023-03-28T07:30:11.321Z,98109.59
2023-03-28T07:32:12.690Z,98114.78
2023-03-28T07:34:14.035Z,98119.19
2023-03-28T07:36:15.674Z,98119.31
2023-03-28T07:38:17.093Z,98120.28
2023-03-28T07:40:18.455Z,98122.06
2023-03-28T07:42:19.833Z,98132.38
2023-03-28T07:44:21.202Z,98132.47
2023-03-28T07:46:23.880Z,98131.66
2023-03-28T07:48:25.527Z,98106.47
2023-03-28T07:50:29.734Z,98135.06
2023-03-28T07:52:31.336Z,98141.00
2023-03-28T07:54:35.819Z,98150.38
2023-03-28T07:56:37.321Z,98151.94
2023-03-28T07:58:38.863Z,98150.03
2023-03-28T08:00:40.836Z,98156.56
2023-03-28T08:02:44.672Z,98156.38
2023-03-28T08:04:46.443Z,98152.59
2023-03-28T08:06:47.772Z,98159.94
2023-03-28T08:08:50.359Z,98149.44
2023-03-28T08:10:51.895Z,98149.03
2023-03-28T08:12:53.212Z,98155.53
2023-03-28T08:14:54.554Z,98157.00
2023-03-28T08:16:55.857Z,98160.25
2023-03-28T08:19:09.875Z,98159.03
2023-03-28T08:21:11.728Z,98174.44
2023-03-28T08:23:13.027Z,98168.19
2023-03-28T08:25:14.789Z,98167.72
2023-03-28T08:27:16.270Z,98177.56
2023-03-28T08:29:17.590Z,98171.97
2023-03-28T08:31:19.002Z,98183.72
2023-03-28T08:33:20.866Z,98174.78
2023-03-28T08:35:22.203Z,98174.41
2023-03-28T08:37:25.003Z,98168.53
2023-03-28T08:39:26.310Z,98163.22
2023-03-28T08:41:27.605Z,98174.19
2023-03-28T08:43:31.661Z,98174.88
2023-03-28T08:45:32.963Z,98175.97
2023-03-28T08:47:34.309Z,98182.00
2023-03-28T08:49:35.654Z,98186.97
2023-03-28T08:51:37.094Z,98190.59
2023-03-28T08:53:40.947Z,98183.97
2023-03-28T08:55:42.570Z,98185.72
2023-03-28T08:57:43.906Z,98186.72
2023-03-28T08:59:45.787Z,98189.47
2023-03-28T09:01:47.439Z,98187.38
2023-03-28T09:03:50.313Z,98200.84
2023-03-28T09:05:51.804Z,98198.00
2023-03-28T09:07:55.360Z,98192.63
2023-03-28T09:09:56.767Z,98199.00
2023-03-28T09:11:58.069Z,98206.81
2023-03-28T09:13:59.358Z,98203.41
2023-03-28T09:16:02.473Z,98197.66
2023-03-28T09:18:03.920Z,98192.97
2023-03-28T09:20:11.606Z,98198.53
2023-03-28T09:22:15.919Z,98206.44
2023-03-28T09:24:17.593Z,98211.03
2023-03-28T09:26:20.151Z,98211.28
2023-03-28T09:28:21.472Z,98223.38
2023-03-28T09:30:22.781Z,98213.13
2023-03-28T09:32:24.619Z,98217.66
2023-03-28T09:34:27.767Z,98218.03
2023-03-28T09:36:41.449Z,98216.34
2023-03-28T09:38:49.522Z,98229.66
2023-03-28T09:40:50.866Z,98239.31
2023-03-28T09:42:52.359Z,98228.44
2023-03-28T09:44:54.978Z,98236.19
2023-03-28T09:46:57.475Z,98237.97
2023-03-28T09:48:58.918Z,98241.53
2023-03-28T09:51:00.927Z,98249.38
2023-03-28T09:53:02.639Z,98248.56
2023-03-28T09:55:04.008Z,98246.81
2023-03-28T09:57:05.883Z,98250.94
2023-03-28T09:59:07.264Z,98247.19
2023-03-28T10:01:08.573Z,98248.84
2023-03-28T10:03:11.187Z,98246.38
2023-03-28T10:05:13.738Z,98248.88
2023-03-28T10:07:16.632Z,98255.47
2023-03-28T10:09:18.403Z,98104.50
2023-03-28T10:11:19.717Z,98242.19
2023-03-28T10:13:21.081Z,98244.34
2023-03-28T10:15:22.380Z,98244.84
2023-03-28T10:17:23.758Z,98248.06
2023-03-28T10:19:25.300Z,98256.50
2023-03-28T10:21:26.697Z,98258.91
2023-03-28T10:23:27.991Z,98262.25
2023-03-28T10:25:29.328Z,98261.38
2023-03-28T10:27:31.906Z,98263.88
2023-03-28T10:29:33.724Z,98268.94
2023-03-28T10:31:35.190Z,98272.50
2023-03-28T10:33:36.636Z,98270.53
2023-03-28T10:35:41.600Z,98281.47
2023-03-28T10:37:43.170Z,98278.09
2023-03-28T10:39:44.489Z,98279.28
2023-03-28T10:41:45.891Z,98279.59
2023-03-28T10:43:47.238Z,98272.06
2023-03-28T10:45:51.115Z,98278.16
2023-03-28T10:47:52.687Z,98275.75
2023-03-28T10:49:54.149Z,98275.16
2023-03-28T10:51:55.719Z,98282.22
2023-03-28T10:53:57.018Z,98278.81
2023-03-28T10:55:59.913Z,98277.22
2023-03-28T10:58:01.562Z,98286.78
2023-03-28T11:00:03.699Z,98284.34
2023-03-28T11:02:05.014Z,98296.31
2023-03-28T11:04:06.709Z,98285.22
2023-03-28T11:06:10.194Z,98277.56
2023-03-28T11:08:11.759Z,98306.66
2023-03-28T11:10:13.234Z,98290.41
2023-03-28T11:12:23.028Z,98292.16
2023-03-28T11:14:29.531Z,98287.25
2023-03-28T11:16:30.876Z,98277.25
2023-03-28T11:18:32.399Z,98289.19
2023-03-28T11:20:33.705Z,98296.84
2023-03-28T11:22:35.043Z,98296.78
2023-03-28T11:24:36.363Z,98297.88
2023-03-28T11:26:40.143Z,98304.06
2023-03-28T11:28:41.450Z,98299.06
2023-03-28T11:30:42.753Z,98293.22
2023-03-28T11:32:44.145Z,98306.03
2023-03-28T11:34:46.243Z,98309.34
2023-03-28T11:36:47.938Z,98306.66
2023-03-28T11:38:49.417Z,98310.19
2023-03-28T11:40:51.683Z,98324.75
2023-03-28T11:42:52.980Z,98303.38
2023-03-28T11:44:54.270Z,98305.72
2023-03-28T11:46:55.614Z,98301.25
2023-03-28T11:48:56.939Z,98307.75
2023-03-28T11:50:58.482Z,98303.47
2023-03-28T11:52:59.955Z,98299.94
2023-03-28T11:55:02.245Z,98299.44
2023-03-28T11:57:03.627Z,98304.22
2023-03-28T11:59:05.006Z,98299.09
2023-03-28T12:01:06.433Z,98306.56
2023-03-28T12:03:07.910Z,98299.34
2023-03-28T12:05:10.339Z,98303.56
2023-03-28T12:07:11.684Z,98305.31
2023-03-28T12:09:13.026Z,98308.66
2023-03-28T12:11:14.361Z,98297.56
2023-03-28T12:13:15.710Z,98303.78
2023-03-28T12:15:17.195Z,98300.56
2023-03-28T12:17:18.518Z,98297.75
2023-03-28T12:19:19.854Z,98295.00
2023-03-28T12:21:21.293Z,98299.19
2023-03-28T12:23:23.862Z,98303.50
2023-03-28T12:25:26.181Z,98295.94
2023-03-28T12:27:27.828Z,98285.88
2023-03-28T12:29:29.212Z,98293.03
2023-03-28T12:31:30.619Z,98290.50
2023-03-28T12:33:32.025Z,98294.91
2023-03-28T12:35:33.848Z,98294.91
2023-03-28T12:37:35.176Z,98301.03
2023-03-28T12:39:36.523Z,98304.56
2023-03-28T12:41:37.825Z,98307.44
2023-03-28T12:43:39.121Z,98322.16
2023-03-28T12:45:40.867Z,98306.75
2023-03-28T12:47:42.249Z,98308.31
2023-03-28T12:49:43.870Z,98301.47
2023-03-28T12:51:45.214Z,98303.97
2023-03-28T12:53:46.527Z,98305.69
2023-03-28T12:55:47.887Z,98308.56
2023-03-28T12:57:49.592Z,98308.91
2023-03-28T12:59:50.984Z,98311.72
2023-03-28T13:01:52.322Z,98320.41
2023-03-28T13:03:54.753Z,98312.69
2023-03-28T13:05:56.052Z,98314.59
2023-03-28T13:07:57.476Z,98323.28
2023-03-28T13:09:58.823Z,98322.56
2023-03-28T13:12:00.186Z,98329.19
2023-03-28T13:14:01.572Z,98321.22
2023-03-28T13:16:03.154Z,98322.81
2023-03-28T13:18:04.577Z,98315.91
2023-03-28T13:20:10.470Z,98315.00
2023-03-28T13:22:11.777Z,98302.22
2023-03-28T13:24:13.072Z,98310.47
2023-03-28T13:26:14.796Z,98331.72
2023-03-28T13:28:16.315Z,98324.00
2023-03-28T13:30:27.590Z,98318.72
2023-03-28T13:32:28.954Z,98314.31
2023-03-28T13:34:32.064Z,98329.59
2023-03-28T13:36:33.412Z,98324.28
2023-03-28T13:38:35.032Z,98313.94
2023-03-28T13:40:36.379Z,98314.41
2023-03-28T13:42:37.781Z,98318.44
2023-03-28T13:44:39.584Z,98314.63
2023-03-28T13:46:41.094Z,98316.53
2023-03-28T13:48:42.400Z,98317.44
2023-03-28T13:50:43.690Z,98318.84
2023-03-28T13:52:45.037Z,98308.66
2023-03-28T13:54:46.564Z,98312.00
2023-03-28T13:56:48.859Z,98308.00
2023-03-28T13:58:50.371Z,98303.13
2023-03-28T14:00:51.692Z,98317.00
2023-03-28T14:02:53.183Z,98307.06
2023-03-28T14:04:54.614Z,98322.63
2023-03-28T14:06:56.301Z,98312.13
2023-03-28T14:08:57.815Z,98319.69
2023-03-28T14:11:00.762Z,98315.50
2023-03-28T14:13:02.367Z,98306.16
2023-03-28T14:15:03.833Z,98306.16
2023-03-28T14:17:05.209Z,98309.63
2023-03-28T14:19:06.858Z,98301.16
2023-03-28T14:21:08.366Z,98320.00
2023-03-28T14:23:09.713Z,98312.41
2023-03-28T14:25:11.288Z,98310.88
2023-03-28T14:27:13.867Z,98309.38
2023-03-28T14:29:15.577Z,98316.34
2023-03-28T14:31:16.968Z,98325.81
2023-03-28T14:33:18.865Z,98327.66
2023-03-28T14:35:21.105Z,98317.47
2023-03-28T14:37:22.789Z,98324.25
2023-03-28T14:39:24.095Z,98316.63
2023-03-28T14:41:29.285Z,98309.88
2023-03-28T14:43:31.249Z,98311.63
2023-03-28T14:45:32.603Z,98316.78
2023-03-28T14:47:35.200Z,98309.16
2023-03-28T14:49:36.540Z,98308.31
2023-03-28T14:51:37.900Z,98315.94
2023-03-28T14:53:39.203Z,98312.53
2023-03-28T14:55:43.556Z,98308.19
2023-03-28T14:57:45.269Z,98308.09
2023-03-28T14:59:52.468Z,98310.47
2023-03-28T15:01:53.962Z,98307.66
2023-03-28T15:03:55.417Z,98307.44
2023-03-28T15:05:56.791Z,98318.31
2023-03-28T15:07:58.124Z,98314.78
2023-03-28T15:09:59.420Z,98306.16
2023-03-28T15:12:00.717Z,98311.22
2023-03-28T15:14:02.200Z,98305.94
2023-03-28T15:16:05.398Z,98311.75
2023-03-28T15:18:06.940Z,98312.56
2023-03-28T15:20:08.379Z,98313.34
2023-03-28T15:22:09.763Z,98306.50
2023-03-28T15:24:11.322Z,98296.22
2023-03-28T15:26:12.671Z,98305.66
2023-03-28T15:28:14.244Z,98305.00
2023-03-28T15:30:15.594Z,98299.09
2023-03-28T15:32:16.953Z,98295.81
2023-03-28T15:34:18.292Z,98315.44
2023-03-28T15:36:22.611Z,98301.91
2023-03-28T15:38:23.904Z,98300.34
2023-03-28T15:40:27.918Z,98312.44
2023-03-28T15:42:30.471Z,98304.91
2023-03-28T15:44:39.159Z,98315.22
2023-03-28T15:46:40.701Z,98309.41
2023-03-28T15:48:45.291Z,98306.13
2023-03-28T15:50:46.762Z,98310.47
2023-03-28T15:52:48.080Z,98311.53
2023-03-28T15:54:49.427Z,98312.47
2023-03-28T15:56:50.784Z,98314.28
2023-03-28T15:58:52.241Z,98310.09
2023-03-28T16:00:53.609Z,98312.75
2023-03-28T16:02:55.024Z,98311.97
2023-03-28T16:04:56.539Z,98313.78
2023-03-28T16:07:02.163Z,98315.56
2023-03-28T16:09:03.539Z,98315.63
2023-03-28T16:11:06.365Z,98324.19
2023-03-28T16:13:07.822Z,98315.72
2023-03-28T16:15:09.130Z,98323.41
2023-03-28T16:17:11.327Z,98326.78
2023-03-28T16:19:12.660Z,98326.78
2023-03-28T16:21:14.073Z,98332.69
2023-03-28T16:23:15.372Z,98332.69
2023-03-28T16:25:16.665Z,98336.91
2023-03-28T16:27:21.173Z,98328.22
2023-03-28T16:29:22.509Z,98344.19
2023-03-28T16:31:23.950Z,98343.25
2023-03-28T16:33:25.332Z,98341.44
2023-03-28T16:35:28.541Z,98339.63
2023-03-28T16:37:29.944Z,98342.94
2023-03-28T16:39:31.505Z,98340.34
2023-03-28T16:41:32.865Z,98336.81
2023-03-28T16:43:34.172Z,98341.00
2023-03-28T16:45:35.485Z,98342.66
2023-03-28T16:47:38.629Z,98346.84
2023-03-28T16:49:40.185Z,98342.59
2023-03-28T16:51:41.568Z,98345.09
2023-03-28T16:53:42.943Z,98336.59
2023-03-28T16:55:45.506Z,98343.41
2023-03-28T16:57:46.943Z,98341.75
2023-03-28T16:59:48.272Z,98347.75
2023-03-28T17:01:53.755Z,98355.41
2023-03-28T17:03:58.393Z,98352.06
2023-03-28T17:05:59.827Z,98355.56
2023-03-28T17:08:02.179Z,98365.00
2023-03-28T17:10:04.309Z,98364.25
2023-03-28T17:12:05.621Z,98360.97
2023-03-28T17:14:06.916Z,98355.91
2023-03-28T17:16:08.450Z,98366.22
2023-03-28T17:18:11.058Z,98367.19
2023-03-28T17:20:12.491Z,98363.03
2023-03-28T17:22:13.883Z,98363.09
2023-03-28T17:24:15.298Z,98357.28
2023-03-28T17:26:17.170Z,98355.63
2023-03-28T17:28:18.532Z,98364.22
2023-03-28T17:30:19.855Z,98355.78
2023-03-28T17:32:22.191Z,98359.25
2023-03-28T17:34:29.655Z,98366.97
2023-03-28T17:36:31.014Z,98361.97
2023-03-28T17:38:32.455Z,98362.84
2023-03-28T17:40:40.936Z,98367.94
2023-03-28T17:42:42.244Z,98366.28
2023-03-28T17:44:46.247Z,98361.19
2023-03-28T17:46:47.819Z,98371.38
2023-03-28T17:48:49.163Z,98370.50
2023-03-28T17:50:50.515Z,98367.06
2023-03-28T17:52:51.839Z,98370.34
2023-03-28T17:54:53.314Z,98374.50
2023-03-28T17:56:54.690Z,98376.97
2023-03-28T17:58:56.284Z,98375.19
2023-03-28T18:00:58.137Z,98377.69
2023-03-28T18:02:59.584Z,98382.00
2023-03-28T18:05:03.866Z,98371.03
2023-03-28T18:07:16.009Z,98381.31
2023-03-28T18:09:18.476Z,98379.75
2023-03-28T18:11:20.118Z,98375.56
2023-03-28T18:13:22.065Z,98373.94
2023-03-28T18:15:23.363Z,98382.44
2023-03-28T18:17:25.154Z,98383.25
2023-03-28T18:19:26.776Z,98381.44
2023-03-28T18:21:43.180Z,98380.56
2023-03-28T18:23:44.480Z,98382.94
2023-03-28T18:25:45.815Z,98386.22
2023-03-28T18:27:47.143Z,98377.63
2023-03-28T18:29:49.317Z,98375.81
2023-03-28T18:31:56.735Z,98371.47
2023-03-28T18:33:58.171Z,98376.50
2023-03-28T18:35:59.718Z,98380.72
2023-03-28T18:38:02.208Z,98384.09
2023-03-28T18:40:07.333Z,98379.00
2023-03-28T18:42:08.710Z,98378.06
2023-03-28T18:44:10.364Z,98378.84
2023-03-28T18:46:16.313Z,98377.16
2023-03-28T18:48:18.575Z,98386.47
2023-03-28T18:50:19.922Z,98376.25
2023-03-28T18:52:24.398Z,98375.34
2023-03-28T18:54:28.391Z,98375.34
2023-03-28T18:56:29.832Z,98365.13
2023-03-28T18:58:31.396Z,98364.38
2023-03-28T19:00:32.704Z,98366.06
2023-03-28T19:02:34.085Z,98367.88
2023-03-28T19:04:38.122Z,98360.28
2023-03-28T19:06:45.870Z,98362.03
2023-03-28T19:08:47.632Z,98364.69
2023-03-28T19:10:49.004Z,98361.34
2023-03-28T19:12:51.931Z,98366.50
2023-03-28T19:14:57.283Z,98359.81
2023-03-28T19:17:02.328Z,98359.06
2023-03-28T19:19:03.828Z,98370.19
2023-03-28T19:21:05.154Z,98366.03
2023-03-28T19:23:06.462Z,98366.09
2023-03-28T19:25:09.246Z,98363.63
2023-03-28T19:27:10.669Z,98368.81
2023-03-28T19:29:11.972Z,98358.63
2023-03-28T19:31:14.387Z,98364.63
2023-03-28T19:33:15.898Z,98363.81
2023-03-28T19:35:17.248Z,98367.22
2023-03-28T19:37:21.378Z,98368.09
2023-03-28T19:39:22.666Z,98368.97
2023-03-28T19:41:24.621Z,98376.56
2023-03-28T19:43:28.819Z,98368.00
2023-03-28T19:45:33.026Z,98376.47
2023-03-28T19:47:34.657Z,98370.41
2023-03-28T19:49:35.972Z,98373.66
2023-03-28T19:51:37.295Z,98377.78
2023-03-28T19:53:40.062Z,98366.63
2023-03-28T19:55:41.609Z,98369.88
2023-03-28T19:57:42.940Z,98374.84
2023-03-28T19:59:44.234Z,98368.78
2023-03-28T20:01:48.641Z,98369.53
2023-03-28T20:03:53.133Z,98372.03
2023-03-28T20:05:54.726Z,98360.03
2023-03-28T20:07:56.045Z,98355.75
2023-03-28T20:09:57.439Z,98365.97
2023-03-28T20:11:58.737Z,98359.16
2023-03-28T20:14:00.135Z,98368.50
2023-03-28T20:16:02.243Z,98370.25
2023-03-28T20:18:03.743Z,98359.16
2023-03-28T20:20:05.294Z,98364.34
2023-03-28T20:22:07.447Z,98368.63
2023-03-28T20:24:08.801Z,98358.50
2023-03-28T20:26:10.108Z,98358.63
2023-03-28T20:28:11.435Z,98363.81
2023-03-28T20:30:12.750Z,98359.69
2023-03-28T20:32:14.087Z,98357.28
2023-03-28T20:34:15.548Z,98361.63
2023-03-28T20:36:17.282Z,98364.25
2023-03-28T20:38:18.627Z,98362.69
2023-03-28T20:40:19.977Z,98359.38
2023-03-28T20:42:21.311Z,98356.94
2023-03-28T20:44:22.605Z,98357.00
2023-03-28T20:46:25.209Z,98357.09
2023-03-28T20:48:34.445Z,98351.22
2023-03-28T20:50:37.583Z,98352.09
2023-03-28T20:52:38.929Z,98359.78
2023-03-28T20:54:40.293Z,98357.25
2023-03-28T20:56:41.700Z,98353.03
2023-03-28T20:58:43.020Z,98353.03
2023-03-28T21:00:47.414Z,98352.09
2023-03-28T21:02:53.685Z,98346.06
2023-03-28T21:04:55.305Z,98347.69
2023-03-28T21:06:57.644Z,98346.72
2023-03-28T21:09:00.444Z,98335.50
2023-03-28T21:11:02.114Z,98344.72
2023-03-28T21:13:03.613Z,98340.34
2023-03-28T21:15:05.301Z,98342.72
2023-03-28T21:17:08.671Z,98342.59
2023-03-28T21:19:10.022Z,98342.34
2023-03-28T21:21:11.372Z,98329.91
2023-03-28T21:23:16.152Z,98332.06
2023-03-28T21:25:17.512Z,98326.75
2023-03-28T21:27:18.848Z,98322.00
2023-03-28T21:29:20.150Z,98316.63
2023-03-28T21:31:21.576Z,98316.44
2023-03-28T21:33:23.871Z,98318.84
2023-03-28T21:35:25.164Z,98323.09
2023-03-28T21:37:26.493Z,98312.88
2023-03-28T21:39:27.873Z,98312.06
2023-03-28T21:41:29.173Z,98309.13
2023-03-28T21:43:30.564Z,98310.34
2023-03-28T21:45:31.856Z,98317.97
2023-03-28T21:47:33.211Z,98314.88
2023-03-28T21:49:34.552Z,98311.06
2023-03-28T21:51:35.912Z,98313.13
2023-03-28T21:53:37.373Z,98309.44
2023-03-28T21:55:38.714Z,98309.78
2023-03-28T21:57:40.010Z,98309.50
2023-03-28T21:59:41.520Z,98307.56
2023-03-28T22:01:45.893Z,98303.00
2023-03-28T22:03:47.409Z,98302.00
2023-03-28T22:05:48.805Z,98308.34
2023-03-28T22:07:50.500Z,98307.53
2023-03-28T22:09:51.813Z,98308.22
2023-03-28T22:11:53.725Z,98308.63
2023-03-28T22:14:05.087Z,98307.56
2023-03-28T22:16:09.347Z,98315.63
2023-03-28T22:18:11.298Z,98303.84
2023-03-28T22:20:12.802Z,98304.81
2023-03-28T22:22:17.794Z,98301.41
2023-03-28T22:24:19.095Z,98306.69
2023-03-28T22:26:20.579Z,98309.41
2023-03-28T22:28:24.619Z,98311.88
2023-03-28T22:30:26.345Z,98304.13
2023-03-28T22:32:27.914Z,98307.81
2023-03-28T22:34:29.239Z,98294.28
2023-03-28T22:36:31.418Z,98297.22
2023-03-28T22:38:32.756Z,98293.41
2023-03-28T22:40:34.070Z,98294.88
2023-03-28T22:42:35.434Z,98285.41
2023-03-28T22:44:37.007Z,98286.91
2023-03-28T22:46:41.083Z,98281.44
2023-03-28T22:48:42.636Z,98279.53
2023-03-28T22:50:47.347Z,98274.09
2023-03-28T22:52:52.966Z,98274.78
2023-03-28T22:54:54.582Z,98276.72
2023-03-28T22:56:55.988Z,98269.66
2023-03-28T23:01:04.120Z,98274.09
2023-03-28T23:03:05.754Z,98273.44
2023-03-28T23:05:08.014Z,98271.19
2023-03-28T23:07:09.380Z,98265.66
2023-03-28T23:09:12.058Z,98263.13
2023-03-28T23:11:13.348Z,98258.91
2023-03-28T23:13:14.686Z,98268.34
2023-03-28T23:15:16.020Z,98261.53
2023-03-28T23:17:19.027Z,98271.88
2023-03-28T23:19:20.623Z,98265.16
2023-03-28T23:21:21.910Z,98260.47
2023-03-28T23:23:23.212Z,98258.22
2023-03-28T23:25:26.676Z,98247.84
2023-03-28T23:27:28.385Z,98251.44
2023-03-28T23:29:29.725Z,98106.19
2023-03-28T23:31:31.114Z,98248.22
2023-03-28T23:33:32.686Z,98250.97
2023-03-28T23:35:34.062Z,98248.28
2023-03-28T23:37:38.293Z,98256.41
2023-03-28T23:39:39.925Z,98253.78
2023-03-28T23:41:41.480Z,98256.25
2023-03-28T23:43:42.807Z,98259.56
2023-03-28T23:45:44.814Z,98263.75
2023-03-28T23:47:46.453Z,98253.59
2023-03-28T23:49:47.886Z,98258.81
2023-03-28T23:51:49.218Z,98263.09
2023-03-28T23:53:50.629Z,98264.78
2023-03-28T23:55:51.938Z,98264.84